Friday, January 19, 2018, 10:27 PM EST
Back to Local

KPBG, Plattsburgh International Airport

Location: Plattsburgh, NY, United States Lat: 44.65
Local Time: 10:27 PM EST ( 3:27 GMT) Lon: -73.467
Time Zone: US/Eastern Elev: 239 ft

Show me the last for .
Show Decoded

2018-01-19 21:53 METAR KPBG 200253Z AUTO 16003KT 10SM OVC100 M03/M07 A2977 RMK AO2 SLP084
                 T10281067 56025 =
2018-01-19 20:53 METAR KPBG 200153Z AUTO 15005KT 10SM OVC100 M03/M06 A2979 RMK AO2 SLP091
                 T10281061 =
2018-01-19 19:53 METAR KPBG 200053Z AUTO 17006KT 10SM SCT120 M03/M06 A2982 RMK AO2 SLP100
                 T10281061 =
2018-01-19 18:53 METAR KPBG 192353Z AUTO 00000KT 10SM BKN032 OVC040 M03/M06 A2984 RMK AO2 SLP110
                 T10281061 11022 21028 58001 =
2018-01-19 18:44 METAR KPBG 192344Z AUTO 17004KT 10SM OVC030 M03/M06 A2984 RMK AO2 T10281061 =
2018-01-19 17:53 METAR KPBG 192253Z AUTO 18005KT 10SM OVC028 M03/M07 A2985 RMK AO2 SLP110
                 T10281067 =
2018-01-19 16:53 METAR KPBG 192153Z AUTO 18005KT 10SM OVC029 M02/M07 A2985 RMK AO2 SLP110
                 T10221067 =
2018-01-19 15:53 METAR KPBG 192053Z AUTO 15007KT 9SM OVC025 M02/M07 A2985 RMK AO2 SLP110
                 T10221067 58009 =
2018-01-19 14:53 METAR KPBG 191953Z AUTO 15005KT 9SM OVC027 M02/M06 A2987 RMK AO2 SLP117
                 T10221061 =
2018-01-19 13:53 METAR KPBG 191853Z AUTO 17007KT 8SM OVC029 M03/M07 A2986 RMK AO2 SLP114
                 T10281067 =
2018-01-19 12:53 METAR KPBG 191753Z AUTO 14006KT 8SM OVC031 M03/M06 A2987 RMK AO2 SLP119 60000
                 T10281061 11028 21039 58014 =
2018-01-19 11:53 METAR KPBG 191653Z AUTO 17005KT 8SM OVC035 M03/M07 A2989 RMK AO2 SLP124
                 T10281067 =
2018-01-19 10:53 METAR KPBG 191553Z AUTO 14005KT 9SM OVC034 M03/M07 A2991 RMK AO2 SLP131
                 T10331067 =
2018-01-19 10:34 METAR KPBG 191534Z AUTO 16003KT 9SM OVC031 M03/M07 A2992 RMK AO2 T10331067 =
2018-01-19 09:53 METAR KPBG 191453Z AUTO 17004KT 8SM OVC025 M03/M07 A2991 RMK AO2 SLP133 60000
                 T10331067 58001 =
2018-01-19 08:53 METAR KPBG 191353Z AUTO 18005KT 8SM OVC024 M04/M07 A2992 RMK AO2 SNB00E09 SLP134
                 P0000 T10391067 =
2018-01-19 07:53 METAR KPBG 191253Z AUTO 17003KT 7SM OVC026 M04/M07 A2992 RMK AO2 SLP135
                 T10391067 =
2018-01-19 06:53 METAR KPBG 191153Z AUTO 00000KT 10SM OVC029 M03/M08 A2992 RMK AO2 SLP135 60000
                 T10331078 11028 21039 51004 =
2018-01-19 06:51 METAR KPBG 191151Z AUTO 25003KT 10SM OVC029 M03/M08 A2992 RMK AO2 =
2018-01-19 05:53 METAR KPBG 191053Z AUTO 00000KT 10SM OVC039 M03/M08 A2991 RMK AO2 SLP133
                 T10281083 =
2018-01-19 04:53 METAR KPBG 190953Z AUTO VRB03KT 10SM OVC048 M03/M07 A2991 RMK AO2 SLP131
                 T10331067 =
2018-01-19 03:53 METAR KPBG 190853Z AUTO 21004KT 10SM BKN050 OVC070 M03/M07 A2990 RMK AO2 SNE12
                 SLP127 P0000 60000 T10331067 58006 =
2018-01-19 03:03 METAR KPBG 190803Z AUTO 22004KT 4SM -SN BKN032 OVC055 M03/M06 A2990 RMK AO2
                 P0000 T10331061 =
2018-01-19 02:53 METAR KPBG 190753Z AUTO VRB03KT 2SM -SN BKN030 OVC036 M03/M06 A2991 RMK AO2
                 SNB39 SLP131 P0000 T10331061 =
2018-01-19 02:51 METAR KPBG 190751Z AUTO 21003KT 2SM -SN BKN028 OVC036 M03/M06 A2991 RMK AO2
                 SNB39 P0000 =
2018-01-19 01:53 METAR KPBG 190653Z AUTO 23005KT 10SM OVC033 M03/M07 A2991 RMK AO2 SLP133
                 T10281072 =
2018-01-19 00:53 METAR KPBG 190553Z AUTO 23004KT 10SM OVC033 M03/M07 A2992 RMK AO2 SLP136
                 T10281072 11028 21033 50000 =
2018-01-18 23:53 METAR KPBG 190453Z AUTO 23008KT 10SM OVC038 M03/M07 A2993 RMK AO2 SLP138
                 T10281072 410171083 =
2018-01-18 22:53 METAR KPBG 190353Z AUTO 22007KT 10SM OVC040 M03/M07 A2993 RMK AO2 SLP138
                 T10281072 =

Support USWX by starting your Amazon purchase here.